sensor_id;sensor_type;location;lat;lon;timestamp;P1;durP1;ratioP1;P2;durP2;ratioP2
9940;SDS011;5009;50.656;7.188;2023-05-21T04:02:56;13.83;;;12.47;;
9940;SDS011;5009;50.656;7.188;2023-05-21T04:05:21;14.47;;;13.03;;
9940;SDS011;5009;50.656;7.188;2023-05-21T04:07:47;14.00;;;12.60;;
9940;SDS011;5009;50.656;7.188;2023-05-21T04:10:14;15.83;;;14.23;;
9940;SDS011;5009;50.656;7.188;2023-05-21T04:12:40;14.03;;;12.63;;
9940;SDS011;5009;50.656;7.188;2023-05-21T04:15:06;15.27;;;13.77;;
9940;SDS011;5009;50.656;7.188;2023-05-21T04:17:32;15.17;;;13.67;;
9940;SDS011;5009;50.656;7.188;2023-05-21T04:19:58;15.73;;;14.23;;
9940;SDS011;5009;50.656;7.188;2023-05-21T04:22:24;14.67;;;12.73;;
9940;SDS011;5009;50.656;7.188;2023-05-21T04:24:51;14.30;;;12.83;;
9940;SDS011;5009;50.656;7.188;2023-05-21T04:27:20;14.87;;;13.30;;
9940;SDS011;5009;50.656;7.188;2023-05-21T04:29:48;14.70;;;13.33;;
9940;SDS011;5009;50.656;7.188;2023-05-21T04:32:14;15.00;;;13.33;;
9940;SDS011;5009;50.656;7.188;2023-05-21T04:34:41;14.97;;;13.47;;
9940;SDS011;5009;50.656;7.188;2023-05-21T04:37:08;15.43;;;13.87;;
9940;SDS011;5009;50.656;7.188;2023-05-21T04:39:34;15.83;;;14.27;;
9940;SDS011;5009;50.656;7.188;2023-05-21T04:42:00;15.10;;;13.50;;
9940;SDS011;5009;50.656;7.188;2023-05-21T04:44:27;15.00;;;13.43;;
9940;SDS011;5009;50.656;7.188;2023-05-21T04:46:53;15.60;;;13.93;;
9940;SDS011;5009;50.656;7.188;2023-05-21T04:49:19;14.93;;;13.43;;
9940;SDS011;5009;50.656;7.188;2023-05-21T04:51:46;15.53;;;13.97;;
9940;SDS011;5009;50.656;7.188;2023-05-21T04:54:13;15.40;;;13.90;;
9940;SDS011;5009;50.656;7.188;2023-05-21T04:56:39;15.90;;;14.27;;
9940;SDS011;5009;50.656;7.188;2023-05-21T04:59:04;16.03;;;14.43;;
9940;SDS011;5009;50.656;7.188;2023-05-21T05:01:30;15.77;;;14.17;;
9940;SDS011;5009;50.656;7.188;2023-05-21T05:03:56;17.13;;;15.43;;
9940;SDS011;5009;50.656;7.188;2023-05-21T05:06:22;16.13;;;13.97;;
9940;SDS011;5009;50.656;7.188;2023-05-21T05:08:50;16.97;;;15.27;;
9940;SDS011;5009;50.656;7.188;2023-05-21T05:11:15;14.93;;;13.40;;
9940;SDS011;5009;50.656;7.188;2023-05-21T05:13:41;15.60;;;14.10;;
9940;SDS011;5009;50.656;7.188;2023-05-21T05:16:07;15.37;;;13.77;;
9940;SDS011;5009;50.656;7.188;2023-05-21T05:18:33;15.17;;;13.67;;
9940;SDS011;5009;50.656;7.188;2023-05-21T05:20:59;16.70;;;14.97;;
9940;SDS011;5009;50.656;7.188;2023-05-21T05:23:25;16.03;;;14.23;;
9940;SDS011;5009;50.656;7.188;2023-05-21T05:25:50;17.33;;;14.17;;
9940;SDS011;5009;50.656;7.188;2023-05-21T05:28:16;16.27;;;14.77;;
9940;SDS011;5009;50.656;7.188;2023-05-21T05:30:42;15.07;;;13.47;;
9940;SDS011;5009;50.656;7.188;2023-05-21T05:33:07;15.37;;;13.80;;
9940;SDS011;5009;50.656;7.188;2023-05-21T05:35:33;15.53;;;14.00;;
9940;SDS011;5009;50.656;7.188;2023-05-21T05:37:59;16.20;;;14.70;;
9940;SDS011;5009;50.656;7.188;2023-05-21T05:40:24;14.97;;;13.57;;
9940;SDS011;5009;50.656;7.188;2023-05-21T05:42:50;15.60;;;14.10;;
9940;SDS011;5009;50.656;7.188;2023-05-21T05:45:16;14.07;;;12.40;;
9940;SDS011;5009;50.656;7.188;2023-05-21T05:47:42;14.60;;;13.17;;
9940;SDS011;5009;50.656;7.188;2023-05-21T05:50:08;13.97;;;12.67;;
9940;SDS011;5009;50.656;7.188;2023-05-21T05:52:34;14.70;;;13.13;;
9940;SDS011;5009;50.656;7.188;2023-05-21T05:55:00;15.00;;;13.50;;
9940;SDS011;5009;50.656;7.188;2023-05-21T05:57:26;15.90;;;14.20;;
9940;SDS011;5009;50.656;7.188;2023-05-21T05:59:51;15.70;;;14.23;;
9940;SDS011;5009;50.656;7.188;2023-05-21T06:02:17;13.53;;;12.33;;
9940;SDS011;5009;50.656;7.188;2023-05-21T06:04:42;14.40;;;13.17;;
9940;SDS011;5009;50.656;7.188;2023-05-21T06:07:08;14.43;;;13.00;;
9940;SDS011;5009;50.656;7.188;2023-05-21T06:09:33;14.80;;;13.23;;
9940;SDS011;5009;50.656;7.188;2023-05-21T06:11:59;14.60;;;13.20;;
9940;SDS011;5009;50.656;7.188;2023-05-21T06:14:25;13.53;;;12.33;;
9940;SDS011;5009;50.656;7.188;2023-05-21T06:16:50;14.03;;;12.63;;
9940;SDS011;5009;50.656;7.188;2023-05-21T06:19:16;14.13;;;12.70;;
9940;SDS011;5009;50.656;7.188;2023-05-21T06:21:41;13.95;;;12.65;;
9940;SDS011;5009;50.656;7.188;2023-05-21T06:24:07;13.57;;;12.38;;
9940;SDS011;5009;50.656;7.188;2023-05-21T06:26:32;16.90;;;13.40;;
9940;SDS011;5009;50.656;7.188;2023-05-21T06:28:58;13.48;;;12.18;;
9940;SDS011;5009;50.656;7.188;2023-05-21T06:31:24;13.05;;;11.70;;
9940;SDS011;5009;50.656;7.188;2023-05-21T06:33:49;13.02;;;11.82;;
9940;SDS011;5009;50.656;7.188;2023-05-21T06:36:15;12.48;;;11.35;;
9940;SDS011;5009;50.656;7.188;2023-05-21T06:38:40;11.57;;;10.48;;
9940;SDS011;5009;50.656;7.188;2023-05-21T06:41:07;11.55;;;10.45;;
9940;SDS011;5009;50.656;7.188;2023-05-21T06:43:32;13.35;;;11.75;;
9940;SDS011;5009;50.656;7.188;2023-05-21T06:45:58;12.45;;;11.35;;
9940;SDS011;5009;50.656;7.188;2023-05-21T06:48:24;10.88;;;9.98;;
9940;SDS011;5009;50.656;7.188;2023-05-21T06:50:49;12.48;;;11.38;;
9940;SDS011;5009;50.656;7.188;2023-05-21T06:53:15;11.32;;;10.27;;
9940;SDS011;5009;50.656;7.188;2023-05-21T06:55:41;11.02;;;9.88;;
9940;SDS011;5009;50.656;7.188;2023-05-21T06:58:09;12.02;;;10.82;;
9940;SDS011;5009;50.656;7.188;2023-05-21T07:00:35;11.30;;;10.30;;
9940;SDS011;5009;50.656;7.188;2023-05-21T07:03:00;11.88;;;10.77;;
9940;SDS011;5009;50.656;7.188;2023-05-21T07:05:26;10.85;;;9.77;;
9940;SDS011;5009;50.656;7.188;2023-05-21T07:07:51;11.52;;;10.48;;
9940;SDS011;5009;50.656;7.188;2023-05-21T07:10:17;10.27;;;9.38;;
9940;SDS011;5009;50.656;7.188;2023-05-21T07:12:43;11.23;;;10.23;;
9940;SDS011;5009;50.656;7.188;2023-05-21T07:15:08;11.38;;;10.23;;
9940;SDS011;5009;50.656;7.188;2023-05-21T07:17:34;11.52;;;9.90;;
9940;SDS011;5009;50.656;7.188;2023-05-21T07:20:01;11.20;;;10.20;;
9940;SDS011;5009;50.656;7.188;2023-05-21T07:22:29;11.07;;;10.07;;
9940;SDS011;5009;50.656;7.188;2023-05-21T07:24:55;11.30;;;10.40;;
9940;SDS011;5009;50.656;7.188;2023-05-21T07:27:20;11.45;;;10.55;;
9940;SDS011;5009;50.656;7.188;2023-05-21T07:29:46;11.45;;;10.32;;
9940;SDS011;5009;50.656;7.188;2023-05-21T07:32:11;10.68;;;9.77;;
9940;SDS011;5009;50.656;7.188;2023-05-21T07:34:37;10.48;;;9.48;;
9940;SDS011;5009;50.656;7.188;2023-05-21T07:37:02;11.55;;;10.55;;
9940;SDS011;5009;50.656;7.188;2023-05-21T07:39:28;10.48;;;9.63;;
9940;SDS011;5009;50.656;7.188;2023-05-21T07:41:53;10.98;;;10.07;;
9940;SDS011;5009;50.656;7.188;2023-05-21T07:44:19;10.00;;;9.30;;
9940;SDS011;5009;50.656;7.188;2023-05-21T07:46:44;10.90;;;9.85;;
9940;SDS011;5009;50.656;7.188;2023-05-21T07:49:10;10.40;;;9.50;;
9940;SDS011;5009;50.656;7.188;2023-05-21T07:51:40;11.18;;;10.07;;
9940;SDS011;5009;50.656;7.188;2023-05-21T07:54:06;10.35;;;9.45;;
9940;SDS011;5009;50.656;7.188;2023-05-21T07:56:32;11.10;;;10.00;;
9940;SDS011;5009;50.656;7.188;2023-05-21T07:58:57;10.70;;;9.73;;
9940;SDS011;5009;50.656;7.188;2023-05-21T08:01:23;11.20;;;10.20;;
9940;SDS011;5009;50.656;7.188;2023-05-21T08:03:48;11.77;;;10.77;;
9940;SDS011;5009;50.656;7.188;2023-05-21T08:06:14;12.15;;;10.95;;
9940;SDS011;5009;50.656;7.188;2023-05-21T08:08:40;11.95;;;10.85;;
9940;SDS011;5009;50.656;7.188;2023-05-21T08:11:05;11.70;;;10.70;;
9940;SDS011;5009;50.656;7.188;2023-05-21T08:13:31;10.63;;;9.57;;
9940;SDS011;5009;50.656;7.188;2023-05-21T08:15:56;12.57;;;11.48;;
9940;SDS011;5009;50.656;7.188;2023-05-21T08:18:22;12.18;;;11.02;;
9940;SDS011;5009;50.656;7.188;2023-05-21T08:20:47;12.70;;;11.38;;
9940;SDS011;5009;50.656;7.188;2023-05-21T08:23:14;11.75;;;10.73;;
9940;SDS011;5009;50.656;7.188;2023-05-21T08:25:39;11.77;;;10.68;;
9940;SDS011;5009;50.656;7.188;2023-05-21T08:28:05;11.20;;;10.20;;
9940;SDS011;5009;50.656;7.188;2023-05-21T08:30:31;12.32;;;11.13;;
9940;SDS011;5009;50.656;7.188;2023-05-21T08:32:57;11.88;;;10.88;;
9940;SDS011;5009;50.656;7.188;2023-05-21T08:35:22;13.82;;;12.50;;
9940;SDS011;5009;50.656;7.188;2023-05-21T08:37:48;13.15;;;11.32;;
9940;SDS011;5009;50.656;7.188;2023-05-21T08:40:14;13.23;;;12.02;;
9940;SDS011;5009;50.656;7.188;2023-05-21T08:42:48;11.95;;;10.85;;
9940;SDS011;5009;50.656;7.188;2023-05-21T08:45:24;12.40;;;11.18;;
9940;SDS011;5009;50.656;7.188;2023-05-21T08:47:54;13.02;;;11.65;;
9940;SDS011;5009;50.656;7.188;2023-05-21T08:50:21;12.45;;;10.57;;
9940;SDS011;5009;50.656;7.188;2023-05-21T08:52:50;12.00;;;10.75;;
9940;SDS011;5009;50.656;7.188;2023-05-21T08:55:16;14.07;;;12.38;;
9940;SDS011;5009;50.656;7.188;2023-05-21T08:57:43;13.20;;;12.00;;
9940;SDS011;5009;50.656;7.188;2023-05-21T09:00:09;14.57;;;13.23;;
9940;SDS011;5009;50.656;7.188;2023-05-21T09:02:36;13.75;;;12.40;;
9940;SDS011;5009;50.656;7.188;2023-05-21T09:05:04;12.70;;;11.50;;
9940;SDS011;5009;50.656;7.188;2023-05-21T09:07:33;13.95;;;12.65;;
9940;SDS011;5009;50.656;7.188;2023-05-21T09:10:07;13.25;;;12.05;;
9940;SDS011;5009;50.656;7.188;2023-05-21T09:12:38;13.75;;;11.70;;
9940;SDS011;5009;50.656;7.188;2023-05-21T09:15:04;13.13;;;11.95;;
9940;SDS011;5009;50.656;7.188;2023-05-21T09:17:31;14.13;;;12.80;;
9940;SDS011;5009;50.656;7.188;2023-05-21T09:20:09;13.55;;;12.32;;
9940;SDS011;5009;50.656;7.188;2023-05-21T09:22:44;13.95;;;12.63;;
9940;SDS011;5009;50.656;7.188;2023-05-21T09:25:11;14.95;;;13.45;;
9940;SDS011;5009;50.656;7.188;2023-05-21T09:27:39;13.93;;;11.85;;
9940;SDS011;5009;50.656;7.188;2023-05-21T09:30:08;14.57;;;13.25;;
9940;SDS011;5009;50.656;7.188;2023-05-21T09:32:38;14.38;;;13.10;;
9940;SDS011;5009;50.656;7.188;2023-05-21T09:35:06;14.52;;;13.00;;
9940;SDS011;5009;50.656;7.188;2023-05-21T09:37:35;13.02;;;11.85;;
9940;SDS011;5009;50.656;7.188;2023-05-21T09:40:12;13.98;;;12.68;;
9940;SDS011;5009;50.656;7.188;2023-05-21T09:42:52;16.35;;;13.18;;
9940;SDS011;5009;50.656;7.188;2023-05-21T09:45:25;14.00;;;12.55;;
9940;SDS011;5009;50.656;7.188;2023-05-21T09:47:52;14.68;;;13.25;;
9940;SDS011;5009;50.656;7.188;2023-05-21T09:50:20;13.30;;;12.05;;
9940;SDS011;5009;50.656;7.188;2023-05-21T09:52:51;13.95;;;12.60;;
9940;SDS011;5009;50.656;7.188;2023-05-21T09:55:17;13.88;;;12.68;;
9940;SDS011;5009;50.656;7.188;2023-05-21T09:57:46;13.98;;;12.60;;
9940;SDS011;5009;50.656;7.188;2023-05-21T10:00:26;14.55;;;13.18;;
9940;SDS011;5009;50.656;7.188;2023-05-21T10:02:55;13.35;;;12.15;;
9940;SDS011;5009;50.656;7.188;2023-05-21T10:05:25;15.48;;;14.07;;
9940;SDS011;5009;50.656;7.188;2023-05-21T10:07:52;15.18;;;12.70;;
9940;SDS011;5009;50.656;7.188;2023-05-21T10:10:24;14.68;;;13.18;;
9940;SDS011;5009;50.656;7.188;2023-05-21T10:13:05;13.57;;;12.38;;
9940;SDS011;5009;50.656;7.188;2023-05-21T10:15:36;15.15;;;13.75;;
9940;SDS011;5009;50.656;7.188;2023-05-21T10:18:05;43.10;;;37.63;;
9940;SDS011;5009;50.656;7.188;2023-05-21T10:20:33;21.63;;;19.27;;
9940;SDS011;5009;50.656;7.188;2023-05-21T10:23:00;32.92;;;29.58;;
9940;SDS011;5009;50.656;7.188;2023-05-21T10:25:26;20.15;;;18.17;;
9940;SDS011;5009;50.656;7.188;2023-05-21T10:27:53;16.02;;;14.40;;
9940;SDS011;5009;50.656;7.188;2023-05-21T10:30:20;16.73;;;14.77;;
9940;SDS011;5009;50.656;7.188;2023-05-21T10:32:47;16.05;;;14.55;;
9940;SDS011;5009;50.656;7.188;2023-05-21T10:35:16;20.02;;;15.07;;
9940;SDS011;5009;50.656;7.188;2023-05-21T10:37:43;18.65;;;16.75;;
9940;SDS011;5009;50.656;7.188;2023-05-21T10:40:09;25.15;;;22.63;;
9940;SDS011;5009;50.656;7.188;2023-05-21T10:45:41;17.10;;;13.38;;
9940;SDS011;5009;50.656;7.188;2023-05-21T10:48:34;14.55;;;13.05;;
9940;SDS011;5009;50.656;7.188;2023-05-21T10:51:14;15.15;;;13.60;;
9940;SDS011;5009;50.656;7.188;2023-05-21T10:57:02;14.95;;;13.52;;
9940;SDS011;5009;50.656;7.188;2023-05-21T11:02:04;14.50;;;13.13;;
9940;SDS011;5009;50.656;7.188;2023-05-21T11:04:31;14.63;;;13.23;;
9940;SDS011;5009;50.656;7.188;2023-05-21T11:06:58;14.60;;;13.13;;
9940;SDS011;5009;50.656;7.188;2023-05-21T11:09:25;13.90;;;12.45;;
9940;SDS011;5009;50.656;7.188;2023-05-21T11:11:51;14.80;;;13.30;;
9940;SDS011;5009;50.656;7.188;2023-05-21T11:14:34;13.68;;;12.40;;
9940;SDS011;5009;50.656;7.188;2023-05-21T11:17:35;13.10;;;11.90;;
9940;SDS011;5009;50.656;7.188;2023-05-21T11:20:03;13.50;;;12.20;;
9940;SDS011;5009;50.656;7.188;2023-05-21T11:22:33;13.43;;;12.23;;
9940;SDS011;5009;50.656;7.188;2023-05-21T11:25:00;12.35;;;11.20;;
9940;SDS011;5009;50.656;7.188;2023-05-21T11:27:33;12.13;;;10.93;;
9940;SDS011;5009;50.656;7.188;2023-05-21T11:30:02;12.05;;;10.98;;
9940;SDS011;5009;50.656;7.188;2023-05-21T11:32:35;12.98;;;11.38;;
9940;SDS011;5009;50.656;7.188;2023-05-21T11:35:21;15.80;;;12.38;;
9940;SDS011;5009;50.656;7.188;2023-05-21T11:37:48;12.93;;;11.68;;
9940;SDS011;5009;50.656;7.188;2023-05-21T11:42:54;13.32;;;11.93;;
9940;SDS011;5009;50.656;7.188;2023-05-21T11:45:21;11.75;;;10.75;;
9940;SDS011;5009;50.656;7.188;2023-05-21T11:47:49;12.18;;;11.07;;
9940;SDS011;5009;50.656;7.188;2023-05-21T11:50:16;11.48;;;10.40;;
9940;SDS011;5009;50.656;7.188;2023-05-21T11:52:42;12.55;;;11.55;;
9940;SDS011;5009;50.656;7.188;2023-05-21T11:55:09;13.68;;;12.38;;
9940;SDS011;5009;50.656;7.188;2023-05-21T11:57:35;12.57;;;11.48;;
9940;SDS011;5009;50.656;7.188;2023-05-21T12:00:01;12.60;;;11.50;;
9940;SDS011;5009;50.656;7.188;2023-05-21T12:02:37;12.65;;;11.45;;
9940;SDS011;5009;50.656;7.188;2023-05-21T12:05:07;13.90;;;11.80;;
9940;SDS011;5009;50.656;7.188;2023-05-21T12:07:33;13.55;;;12.43;;
9940;SDS011;5009;50.656;7.188;2023-05-21T12:09:59;12.32;;;11.23;;
9940;SDS011;5009;50.656;7.188;2023-05-21T12:12:25;12.15;;;11.05;;
9940;SDS011;5009;50.656;7.188;2023-05-21T12:14:52;11.73;;;10.73;;
9940;SDS011;5009;50.656;7.188;2023-05-21T12:17:22;13.38;;;12.10;;
9940;SDS011;5009;50.656;7.188;2023-05-21T12:19:50;12.20;;;11.20;;
9940;SDS011;5009;50.656;7.188;2023-05-21T12:22:17;13.70;;;12.50;;
9940;SDS011;5009;50.656;7.188;2023-05-21T12:24:42;13.98;;;12.73;;
9940;SDS011;5009;50.656;7.188;2023-05-21T12:27:09;14.05;;;12.73;;
9940;SDS011;5009;50.656;7.188;2023-05-21T12:29:37;12.82;;;11.73;;
9940;SDS011;5009;50.656;7.188;2023-05-21T12:32:06;12.98;;;11.73;;
9940;SDS011;5009;50.656;7.188;2023-05-21T12:34:51;12.13;;;10.93;;
9940;SDS011;5009;50.656;7.188;2023-05-21T12:37:25;13.18;;;11.85;;
9940;SDS011;5009;50.656;7.188;2023-05-21T12:39:51;12.60;;;11.50;;
9940;SDS011;5009;50.656;7.188;2023-05-21T12:42:28;13.40;;;12.30;;
9940;SDS011;5009;50.656;7.188;2023-05-21T12:44:54;13.38;;;12.20;;
9940;SDS011;5009;50.656;7.188;2023-05-21T12:47:24;12.57;;;11.48;;
9940;SDS011;5009;50.656;7.188;2023-05-21T12:49:52;13.05;;;11.75;;
9940;SDS011;5009;50.656;7.188;2023-05-21T12:52:21;13.10;;;11.75;;
9940;SDS011;5009;50.656;7.188;2023-05-21T12:54:48;13.45;;;11.80;;
9940;SDS011;5009;50.656;7.188;2023-05-21T12:57:26;12.75;;;11.70;;
9940;SDS011;5009;50.656;7.188;2023-05-21T12:59:59;13.02;;;11.77;;
9940;SDS011;5009;50.656;7.188;2023-05-21T13:02:30;12.48;;;11.48;;
9940;SDS011;5009;50.656;7.188;2023-05-21T13:05:05;14.02;;;12.20;;
9940;SDS011;5009;50.656;7.188;2023-05-21T13:07:36;12.52;;;11.50;;
9940;SDS011;5009;50.656;7.188;2023-05-21T13:10:03;12.55;;;11.50;;
9940;SDS011;5009;50.656;7.188;2023-05-21T13:12:30;12.55;;;11.45;;
9940;SDS011;5009;50.656;7.188;2023-05-21T13:14:58;13.15;;;12.05;;
9940;SDS011;5009;50.656;7.188;2023-05-21T13:17:25;14.40;;;11.82;;
9940;SDS011;5009;50.656;7.188;2023-05-21T13:20:07;12.80;;;11.38;;
9940;SDS011;5009;50.656;7.188;2023-05-21T13:22:37;12.50;;;11.35;;
9940;SDS011;5009;50.656;7.188;2023-05-21T13:25:07;12.30;;;11.07;;
9940;SDS011;5009;50.656;7.188;2023-05-21T13:27:39;12.43;;;11.20;;
9940;SDS011;5009;50.656;7.188;2023-05-21T13:30:06;13.90;;;12.10;;
9940;SDS011;5009;50.656;7.188;2023-05-21T13:32:33;12.73;;;11.73;;
9940;SDS011;5009;50.656;7.188;2023-05-21T13:34:59;13.38;;;12.18;;
9940;SDS011;5009;50.656;7.188;2023-05-21T13:37:25;14.38;;;13.07;;
9940;SDS011;5009;50.656;7.188;2023-05-21T13:39:51;12.00;;;10.90;;
9940;SDS011;5009;50.656;7.188;2023-05-21T13:42:16;12.65;;;11.38;;
9940;SDS011;5009;50.656;7.188;2023-05-21T13:44:43;13.27;;;12.18;;
9940;SDS011;5009;50.656;7.188;2023-05-21T13:47:09;13.00;;;11.70;;
9940;SDS011;5009;50.656;7.188;2023-05-21T13:49:36;11.77;;;10.77;;
9940;SDS011;5009;50.656;7.188;2023-05-21T13:52:02;12.15;;;11.10;;
9940;SDS011;5009;50.656;7.188;2023-05-21T13:54:28;12.43;;;11.32;;
9940;SDS011;5009;50.656;7.188;2023-05-21T13:56:55;12.65;;;11.55;;
9940;SDS011;5009;50.656;7.188;2023-05-21T13:59:20;12.27;;;11.13;;
9940;SDS011;5009;50.656;7.188;2023-05-21T14:01:46;13.55;;;12.20;;
9940;SDS011;5009;50.656;7.188;2023-05-21T14:04:13;12.93;;;11.93;;
9940;SDS011;5009;50.656;7.188;2023-05-21T14:06:40;13.05;;;11.10;;
9940;SDS011;5009;50.656;7.188;2023-05-21T14:09:06;13.23;;;12.13;;
9940;SDS011;5009;50.656;7.188;2023-05-21T14:11:32;13.25;;;11.95;;
9940;SDS011;5009;50.656;7.188;2023-05-21T14:13:57;12.45;;;11.43;;
9940;SDS011;5009;50.656;7.188;2023-05-21T14:16:24;12.77;;;11.57;;
9940;SDS011;5009;50.656;7.188;2023-05-21T14:18:51;13.05;;;11.82;;
9940;SDS011;5009;50.656;7.188;2023-05-21T14:21:17;13.38;;;12.07;;
9940;SDS011;5009;50.656;7.188;2023-05-21T14:23:43;13.18;;;11.88;;
9940;SDS011;5009;50.656;7.188;2023-05-21T14:26:09;12.80;;;11.70;;
9940;SDS011;5009;50.656;7.188;2023-05-21T14:28:35;12.80;;;11.75;;
9940;SDS011;5009;50.656;7.188;2023-05-21T14:31:00;13.18;;;11.95;;
9940;SDS011;5009;50.656;7.188;2023-05-21T14:33:26;13.95;;;12.65;;
9940;SDS011;5009;50.656;7.188;2023-05-21T14:35:52;13.73;;;12.52;;
9940;SDS011;5009;50.656;7.188;2023-05-21T14:38:17;13.20;;;11.90;;
9940;SDS011;5009;50.656;7.188;2023-05-21T14:40:43;13.20;;;12.00;;
9940;SDS011;5009;50.656;7.188;2023-05-21T14:43:08;12.85;;;11.60;;
9940;SDS011;5009;50.656;7.188;2023-05-21T14:45:34;11.90;;;10.90;;
9940;SDS011;5009;50.656;7.188;2023-05-21T14:48:00;12.70;;;11.60;;
9940;SDS011;5009;50.656;7.188;2023-05-21T14:50:32;12.02;;;10.93;;
9940;SDS011;5009;50.656;7.188;2023-05-21T14:53:07;12.40;;;11.40;;
9940;SDS011;5009;50.656;7.188;2023-05-21T14:55:34;12.80;;;11.65;;
9940;SDS011;5009;50.656;7.188;2023-05-21T14:58:01;12.65;;;11.55;;
9940;SDS011;5009;50.656;7.188;2023-05-21T15:00:27;15.07;;;12.38;;
9940;SDS011;5009;50.656;7.188;2023-05-21T15:02:53;12.57;;;11.35;;
9940;SDS011;5009;50.656;7.188;2023-05-21T15:05:19;12.75;;;11.65;;
9940;SDS011;5009;50.656;7.188;2023-05-21T15:07:45;17.90;;;16.27;;
9940;SDS011;5009;50.656;7.188;2023-05-21T15:10:11;19.45;;;17.75;;
9940;SDS011;5009;50.656;7.188;2023-05-21T15:12:39;13.70;;;12.60;;
9940;SDS011;5009;50.656;7.188;2023-05-21T15:15:05;13.32;;;12.02;;
9940;SDS011;5009;50.656;7.188;2023-05-21T15:17:32;12.02;;;11.10;;
9940;SDS011;5009;50.656;7.188;2023-05-21T15:19:58;12.68;;;11.55;;
9940;SDS011;5009;50.656;7.188;2023-05-21T15:22:34;12.88;;;11.77;;
9940;SDS011;5009;50.656;7.188;2023-05-21T15:25:01;12.07;;;10.95;;
9940;SDS011;5009;50.656;7.188;2023-05-21T15:27:27;12.93;;;11.73;;
9940;SDS011;5009;50.656;7.188;2023-05-21T15:29:53;12.55;;;11.45;;
9940;SDS011;5009;50.656;7.188;2023-05-21T15:32:18;12.50;;;11.40;;
9940;SDS011;5009;50.656;7.188;2023-05-21T15:34:47;13.10;;;11.93;;
9940;SDS011;5009;50.656;7.188;2023-05-21T15:37:13;12.95;;;11.82;;
9940;SDS011;5009;50.656;7.188;2023-05-21T15:39:39;13.05;;;11.85;;
9940;SDS011;5009;50.656;7.188;2023-05-21T15:42:08;12.98;;;11.77;;
9940;SDS011;5009;50.656;7.188;2023-05-21T15:44:35;13.43;;;12.30;;
9940;SDS011;5009;50.656;7.188;2023-05-21T15:47:01;13.48;;;12.38;;
9940;SDS011;5009;50.656;7.188;2023-05-21T15:49:27;13.93;;;12.63;;
9940;SDS011;5009;50.656;7.188;2023-05-21T15:51:53;13.98;;;12.75;;
9940;SDS011;5009;50.656;7.188;2023-05-21T15:54:21;13.57;;;12.48;;
9940;SDS011;5009;50.656;7.188;2023-05-21T15:56:46;13.85;;;12.65;;
9940;SDS011;5009;50.656;7.188;2023-05-21T15:59:13;13.35;;;12.25;;
9940;SDS011;5009;50.656;7.188;2023-05-21T16:01:39;13.88;;;12.68;;
9940;SDS011;5009;50.656;7.188;2023-05-21T16:04:04;14.65;;;12.75;;
9940;SDS011;5009;50.656;7.188;2023-05-21T16:06:30;13.65;;;11.95;;
9940;SDS011;5009;50.656;7.188;2023-05-21T16:08:56;13.68;;;12.55;;
9940;SDS011;5009;50.656;7.188;2023-05-21T16:11:23;15.02;;;13.73;;
9940;SDS011;5009;50.656;7.188;2023-05-21T16:13:50;13.27;;;12.18;;
9940;SDS011;5009;50.656;7.188;2023-05-21T16:16:16;13.15;;;12.05;;
9940;SDS011;5009;50.656;7.188;2023-05-21T16:18:41;15.07;;;13.88;;
9940;SDS011;5009;50.656;7.188;2023-05-21T16:21:07;13.55;;;12.45;;
9940;SDS011;5009;50.656;7.188;2023-05-21T16:23:32;12.55;;;11.55;;
9940;SDS011;5009;50.656;7.188;2023-05-21T16:25:58;14.00;;;11.85;;
9940;SDS011;5009;50.656;7.188;2023-05-21T16:28:24;12.82;;;11.85;;
9940;SDS011;5009;50.656;7.188;2023-05-21T16:30:50;13.32;;;12.15;;
9940;SDS011;5009;50.656;7.188;2023-05-21T16:33:16;13.50;;;12.30;;
9940;SDS011;5009;50.656;7.188;2023-05-21T16:35:42;14.40;;;13.20;;
9940;SDS011;5009;50.656;7.188;2023-05-21T16:38:08;15.13;;;13.63;;
9940;SDS011;5009;50.656;7.188;2023-05-21T16:40:34;15.15;;;13.85;;
9940;SDS011;5009;50.656;7.188;2023-05-21T16:42:59;14.70;;;13.40;;
9940;SDS011;5009;50.656;7.188;2023-05-21T16:45:25;13.45;;;12.40;;
9940;SDS011;5009;50.656;7.188;2023-05-21T16:47:51;13.38;;;12.23;;
9940;SDS011;5009;50.656;7.188;2023-05-21T16:50:17;13.13;;;12.13;;
9940;SDS011;5009;50.656;7.188;2023-05-21T16:52:43;13.50;;;12.25;;
9940;SDS011;5009;50.656;7.188;2023-05-21T16:55:09;13.80;;;12.45;;
9940;SDS011;5009;50.656;7.188;2023-05-21T16:57:35;12.93;;;11.70;;
9940;SDS011;5009;50.656;7.188;2023-05-21T17:00:01;12.23;;;11.23;;
9940;SDS011;5009;50.656;7.188;2023-05-21T17:02:31;11.85;;;10.82;;
9940;SDS011;5009;50.656;7.188;2023-05-21T17:04:57;11.85;;;10.85;;
9940;SDS011;5009;50.656;7.188;2023-05-21T17:07:24;11.57;;;10.70;;
9940;SDS011;5009;50.656;7.188;2023-05-21T17:09:50;9.93;;;9.02;;
9940;SDS011;5009;50.656;7.188;2023-05-21T17:12:16;8.10;;;7.40;;
9940;SDS011;5009;50.656;7.188;2023-05-21T17:14:41;8.18;;;7.47;;
9940;SDS011;5009;50.656;7.188;2023-05-21T17:17:07;8.57;;;7.88;;
9940;SDS011;5009;50.656;7.188;2023-05-21T17:19:32;8.35;;;7.55;;
9940;SDS011;5009;50.656;7.188;2023-05-21T17:21:58;8.15;;;7.55;;
9940;SDS011;5009;50.656;7.188;2023-05-21T17:24:23;8.27;;;7.53;;
9940;SDS011;5009;50.656;7.188;2023-05-21T17:26:49;7.78;;;7.18;;
9940;SDS011;5009;50.656;7.188;2023-05-21T17:29:16;9.45;;;8.65;;
9940;SDS011;5009;50.656;7.188;2023-05-21T17:31:42;9.38;;;8.57;;
9940;SDS011;5009;50.656;7.188;2023-05-21T17:34:08;10.10;;;9.30;;
9940;SDS011;5009;50.656;7.188;2023-05-21T17:36:33;12.48;;;11.32;;
9940;SDS011;5009;50.656;7.188;2023-05-21T17:39:00;12.10;;;10.95;;
9940;SDS011;5009;50.656;7.188;2023-05-21T17:41:25;14.75;;;12.38;;
9940;SDS011;5009;50.656;7.188;2023-05-21T17:43:51;11.68;;;10.70;;
9940;SDS011;5009;50.656;7.188;2023-05-21T17:46:16;10.38;;;9.55;;
9940;SDS011;5009;50.656;7.188;2023-05-21T17:48:42;10.05;;;9.18;;
9940;SDS011;5009;50.656;7.188;2023-05-21T17:51:09;9.57;;;8.82;;
9940;SDS011;5009;50.656;7.188;2023-05-21T17:53:35;10.32;;;9.32;;
9940;SDS011;5009;50.656;7.188;2023-05-21T17:56:00;9.63;;;8.73;;
9940;SDS011;5009;50.656;7.188;2023-05-21T17:58:27;9.48;;;8.68;;
9940;SDS011;5009;50.656;7.188;2023-05-21T18:00:53;10.25;;;9.30;;
9940;SDS011;5009;50.656;7.188;2023-05-21T18:03:18;10.35;;;9.35;;
9940;SDS011;5009;50.656;7.188;2023-05-21T18:05:44;9.98;;;9.18;;
9940;SDS011;5009;50.656;7.188;2023-05-21T18:08:10;10.52;;;9.50;;
9940;SDS011;5009;50.656;7.188;2023-05-21T18:10:36;10.15;;;9.35;;
9940;SDS011;5009;50.656;7.188;2023-05-21T18:13:01;10.80;;;9.85;;
9940;SDS011;5009;50.656;7.188;2023-05-21T18:15:27;11.30;;;10.18;;
9940;SDS011;5009;50.656;7.188;2023-05-21T18:17:52;10.77;;;9.85;;
9940;SDS011;5009;50.656;7.188;2023-05-21T18:20:18;11.65;;;10.25;;
9940;SDS011;5009;50.656;7.188;2023-05-21T18:22:43;10.60;;;9.50;;
9940;SDS011;5009;50.656;7.188;2023-05-21T18:25:09;11.00;;;9.77;;
9940;SDS011;5009;50.656;7.188;2023-05-21T18:27:35;10.70;;;9.77;;
9940;SDS011;5009;50.656;7.188;2023-05-21T18:30:01;10.75;;;9.77;;
9940;SDS011;5009;50.656;7.188;2023-05-21T18:32:30;10.98;;;9.88;;
9940;SDS011;5009;50.656;7.188;2023-05-21T18:34:56;10.88;;;9.98;;
9940;SDS011;5009;50.656;7.188;2023-05-21T18:37:22;10.25;;;9.27;;
9940;SDS011;5009;50.656;7.188;2023-05-21T18:39:47;10.05;;;9.25;;
9940;SDS011;5009;50.656;7.188;2023-05-21T18:42:13;10.85;;;9.85;;
9940;SDS011;5009;50.656;7.188;2023-05-21T18:44:39;10.73;;;9.82;;
9940;SDS011;5009;50.656;7.188;2023-05-21T18:47:04;11.77;;;10.85;;
9940;SDS011;5009;50.656;7.188;2023-05-21T18:49:31;10.85;;;9.95;;
9940;SDS011;5009;50.656;7.188;2023-05-21T18:51:59;13.15;;;11.90;;
9940;SDS011;5009;50.656;7.188;2023-05-21T18:54:24;12.18;;;11.05;;
9940;SDS011;5009;50.656;7.188;2023-05-21T18:56:50;12.35;;;11.35;;
9940;SDS011;5009;50.656;7.188;2023-05-21T18:59:16;12.07;;;11.07;;
9940;SDS011;5009;50.656;7.188;2023-05-21T19:01:41;11.27;;;10.38;;
9940;SDS011;5009;50.656;7.188;2023-05-21T19:04:07;11.00;;;10.10;;